createdAt,value
2023-03-31T00:01:45.204Z,21.83
2023-03-31T00:04:16.760Z,9.73
2023-03-31T00:06:48.300Z,7.17
2023-03-31T00:09:22.154Z,14.43
2023-03-31T00:11:55.119Z,13.40
2023-03-31T00:14:26.553Z,9.37
2023-03-31T00:16:58.497Z,10.43
2023-03-31T00:19:33.193Z,14.87
2023-03-31T00:22:05.305Z,11.50
2023-03-31T00:24:36.880Z,11.57
2023-03-31T00:27:09.059Z,16.23
2023-03-31T00:29:41.650Z,10.43
2023-03-31T00:32:14.577Z,15.37
2023-03-31T00:34:46.406Z,10.17
2023-03-31T00:37:17.849Z,13.13
2023-03-31T00:39:49.284Z,18.00
2023-03-31T00:42:20.986Z,13.10
2023-03-31T00:45:14.239Z,18.77
2023-03-31T00:47:50.724Z,13.27
2023-03-31T00:50:28.878Z,16.00
2023-03-31T00:53:10.925Z,11.67
2023-03-31T00:55:45.902Z,13.30
2023-03-31T00:58:20.330Z,12.47
2023-03-31T01:00:53.196Z,9.93
2023-03-31T01:03:25.100Z,10.37
2023-03-31T01:06:05.965Z,13.53
2023-03-31T01:08:40.194Z,12.53
2023-03-31T01:11:16.454Z,15.87
2023-03-31T01:16:22.953Z,19.57
2023-03-31T01:18:57.426Z,10.27
2023-03-31T01:22:05.511Z,12.27
2023-03-31T01:24:39.984Z,11.60
2023-03-31T01:27:22.116Z,11.73
2023-03-31T01:30:15.683Z,8.47
2023-03-31T01:33:26.788Z,9.80
2023-03-31T01:36:28.402Z,9.00
2023-03-31T01:39:29.521Z,14.30
2023-03-31T01:42:30.278Z,8.87
2023-03-31T01:45:23.158Z,14.70
2023-03-31T01:48:18.122Z,15.80
2023-03-31T01:50:59.126Z,16.90
2023-03-31T01:53:44.725Z,11.20
2023-03-31T01:56:32.571Z,12.40
2023-03-31T01:59:31.293Z,13.60
2023-03-31T02:02:27.323Z,12.03
2023-03-31T02:05:08.904Z,11.60
2023-03-31T02:07:50.128Z,14.67
2023-03-31T02:10:24.137Z,8.97
2023-03-31T02:12:57.762Z,11.50
2023-03-31T02:15:38.185Z,12.47
2023-03-31T02:18:13.670Z,10.27
2023-03-31T02:20:48.984Z,11.05
2023-03-31T02:23:26.492Z,9.73
2023-03-31T02:26:15.978Z,14.13
2023-03-31T02:28:47.468Z,13.23
2023-03-31T02:31:29.160Z,19.00
2023-03-31T02:34:01.324Z,14.87
2023-03-31T02:36:35.315Z,16.03
2023-03-31T02:39:11.775Z,11.33
2023-03-31T02:41:43.669Z,9.90
2023-03-31T02:44:17.078Z,12.17
2023-03-31T02:46:50.329Z,16.87
2023-03-31T02:49:22.509Z,11.43
2023-03-31T02:52:06.458Z,9.83
2023-03-31T02:55:17.417Z,16.37
2023-03-31T02:57:56.936Z,16.13
2023-03-31T03:00:35.319Z,13.43
2023-03-31T03:03:44.402Z,12.60
2023-03-31T03:06:30.128Z,17.33
2023-03-31T03:09:19.318Z,13.47
2023-03-31T03:12:05.885Z,15.80
2023-03-31T03:14:48.501Z,13.65
2023-03-31T03:17:29.102Z,13.80
2023-03-31T03:20:02.513Z,16.30
2023-03-31T03:22:34.360Z,15.87
2023-03-31T03:25:10.584Z,14.00
2023-03-31T03:30:13.969Z,18.37
2023-03-31T03:32:46.182Z,14.47
2023-03-31T03:35:17.871Z,25.30
2023-03-31T03:37:49.309Z,15.03
2023-03-31T03:40:20.932Z,16.87
2023-03-31T03:42:52.406Z,21.37
2023-03-31T03:45:23.825Z,13.83
2023-03-31T03:47:55.326Z,16.40
2023-03-31T03:50:27.137Z,15.83
2023-03-31T03:52:58.616Z,13.90
2023-03-31T03:55:30.078Z,20.77
2023-03-31T03:58:01.781Z,20.20
2023-03-31T04:00:34.005Z,13.27
2023-03-31T04:03:05.361Z,15.97
2023-03-31T04:05:36.867Z,16.30
2023-03-31T04:08:08.776Z,16.63
2023-03-31T04:10:49.121Z,13.97
2023-03-31T04:13:21.120Z,17.43
2023-03-31T04:15:52.607Z,14.80
2023-03-31T04:18:23.989Z,12.07
2023-03-31T04:21:04.057Z,14.27
2023-03-31T04:23:46.649Z,12.60
2023-03-31T04:26:18.689Z,14.50
2023-03-31T04:28:50.930Z,16.20
2023-03-31T04:31:25.400Z,14.03
2023-03-31T04:34:02.155Z,21.17
2023-03-31T04:36:33.975Z,14.10
2023-03-31T04:39:05.456Z,13.97
2023-03-31T04:41:36.932Z,12.30
2023-03-31T04:44:08.398Z,11.87
2023-03-31T04:46:39.894Z,14.27
2023-03-31T04:49:11.288Z,13.33
2023-03-31T04:51:43.221Z,14.80
2023-03-31T04:54:14.642Z,10.17
2023-03-31T04:56:46.393Z,12.87
2023-03-31T04:59:17.739Z,10.23
2023-03-31T05:01:49.168Z,12.33
2023-03-31T05:04:21.106Z,11.63
2023-03-31T05:06:52.508Z,13.90
2023-03-31T05:09:23.832Z,14.23
2023-03-31T05:11:56.418Z,14.40
2023-03-31T05:14:27.791Z,16.10
2023-03-31T05:16:59.534Z,10.60
2023-03-31T05:19:31.521Z,9.50
2023-03-31T05:22:03.068Z,14.07
2023-03-31T05:24:34.713Z,12.37
2023-03-31T05:27:06.603Z,11.87
2023-03-31T05:29:38.926Z,11.47
2023-03-31T05:32:10.422Z,12.30
2023-03-31T05:34:43.364Z,17.50
2023-03-31T05:37:14.732Z,15.90
2023-03-31T05:39:46.256Z,11.57
2023-03-31T05:42:17.873Z,10.23
2023-03-31T05:44:49.463Z,10.97
2023-03-31T05:47:21.176Z,12.47
2023-03-31T05:49:53.132Z,9.87
2023-03-31T05:52:24.616Z,13.20
2023-03-31T05:54:56.064Z,10.40
2023-03-31T05:57:27.592Z,13.83
2023-03-31T05:59:59.121Z,14.20
2023-03-31T06:02:30.587Z,12.30
2023-03-31T06:05:02.027Z,11.57
2023-03-31T06:07:33.389Z,13.07
2023-03-31T06:10:08.212Z,12.63
2023-03-31T06:12:39.701Z,11.90
2023-03-31T06:15:11.243Z,10.83
2023-03-31T06:17:43.012Z,14.00
2023-03-31T06:20:27.133Z,8.73
2023-03-31T06:22:59.478Z,13.23
2023-03-31T06:25:40.189Z,7.67
2023-03-31T06:28:21.344Z,14.17
2023-03-31T06:31:00.545Z,10.77
2023-03-31T06:33:34.309Z,10.47
2023-03-31T06:36:06.940Z,9.63
2023-03-31T06:38:39.942Z,7.57
2023-03-31T06:41:14.040Z,10.97
2023-03-31T06:43:46.450Z,9.87
2023-03-31T06:46:18.651Z,10.03
2023-03-31T06:48:50.195Z,10.73
2023-03-31T06:51:21.697Z,11.17
2023-03-31T06:53:53.142Z,10.40
2023-03-31T06:56:24.591Z,8.63
2023-03-31T06:58:55.997Z,6.73
2023-03-31T07:01:27.380Z,6.97
2023-03-31T07:03:58.879Z,7.97
2023-03-31T07:06:31.349Z,8.33
2023-03-31T07:09:04.436Z,13.27
2023-03-31T07:11:35.805Z,6.77
2023-03-31T07:14:07.462Z,5.03
2023-03-31T07:16:39.272Z,11.10
2023-03-31T07:19:11.049Z,7.20
2023-03-31T07:21:42.491Z,10.17
2023-03-31T07:24:14.060Z,7.67
2023-03-31T07:26:45.706Z,9.17
2023-03-31T07:29:17.192Z,7.83
2023-03-31T07:31:48.781Z,3.73
2023-03-31T07:34:20.431Z,7.20
2023-03-31T07:36:55.216Z,9.50
2023-03-31T07:39:26.640Z,8.50
2023-03-31T07:41:58.336Z,5.87
2023-03-31T07:44:29.853Z,10.13
2023-03-31T07:47:06.061Z,4.93
2023-03-31T07:52:08.938Z,4.70
2023-03-31T07:54:40.532Z,5.80
2023-03-31T07:57:12.600Z,7.17
2023-03-31T07:59:43.995Z,4.93
2023-03-31T08:02:17.179Z,6.33
2023-03-31T08:04:48.648Z,5.17
2023-03-31T08:07:20.171Z,5.97
2023-03-31T08:09:52.161Z,6.40
2023-03-31T08:12:23.543Z,4.90
2023-03-31T08:14:55.204Z,5.33
2023-03-31T08:17:26.935Z,6.07
2023-03-31T08:20:02.768Z,4.43
2023-03-31T08:22:37.824Z,6.53
2023-03-31T08:25:10.973Z,7.27
2023-03-31T08:27:42.459Z,6.53
2023-03-31T08:30:14.110Z,10.83
2023-03-31T08:32:47.186Z,5.13
2023-03-31T08:35:18.967Z,6.03
2023-03-31T08:37:50.437Z,5.47
2023-03-31T08:40:28.036Z,5.77
2023-03-31T08:43:06.134Z,3.87
2023-03-31T08:45:42.494Z,7.30
2023-03-31T08:48:27.242Z,5.00
2023-03-31T08:51:06.085Z,3.60
2023-03-31T08:53:43.740Z,5.60
2023-03-31T08:56:22.504Z,8.10
2023-03-31T08:58:54.258Z,4.37
2023-03-31T09:01:54.803Z,8.00
2023-03-31T09:04:33.376Z,4.40
2023-03-31T09:07:26.289Z,7.70
2023-03-31T09:10:12.980Z,4.90
2023-03-31T09:15:53.070Z,5.30
2023-03-31T09:18:32.735Z,3.20
2023-03-31T09:21:20.131Z,7.97
2023-03-31T09:24:00.189Z,6.90
2023-03-31T09:26:37.591Z,3.50
2023-03-31T09:29:27.103Z,4.33
2023-03-31T09:32:21.336Z,6.57
2023-03-31T09:35:01.091Z,7.70
2023-03-31T09:37:33.288Z,5.30
2023-03-31T09:40:07.697Z,3.77
2023-03-31T09:42:39.190Z,8.60
2023-03-31T09:45:19.868Z,4.83
2023-03-31T09:47:57.834Z,3.73
2023-03-31T09:50:31.374Z,4.80
2023-03-31T09:53:05.783Z,5.70
2023-03-31T09:55:50.588Z,7.67
2023-03-31T09:58:24.701Z,5.93
2023-03-31T10:01:02.413Z,3.87
2023-03-31T10:03:37.170Z,4.83
2023-03-31T10:06:11.378Z,4.53
2023-03-31T10:08:54.345Z,4.60
2023-03-31T10:11:29.347Z,2.80
2023-03-31T10:14:13.542Z,6.60
2023-03-31T10:16:55.535Z,4.53
2023-03-31T10:19:30.081Z,5.60
2023-03-31T10:22:14.312Z,4.80
2023-03-31T10:24:48.302Z,6.37
2023-03-31T10:27:22.414Z,5.20
2023-03-31T10:30:03.046Z,4.80
2023-03-31T10:32:43.232Z,5.30
2023-03-31T10:35:23.951Z,3.77
2023-03-31T10:37:59.011Z,3.27
2023-03-31T10:40:33.217Z,3.30
2023-03-31T10:43:17.232Z,4.50
2023-03-31T10:46:02.030Z,3.87
2023-03-31T10:48:39.736Z,3.67
2023-03-31T10:51:16.871Z,3.90
2023-03-31T10:53:50.410Z,4.50
2023-03-31T10:56:42.114Z,4.07
2023-03-31T10:59:28.175Z,5.47
2023-03-31T11:02:21.616Z,5.78
2023-03-31T11:05:13.141Z,2.93
2023-03-31T11:07:59.034Z,2.53
2023-03-31T11:10:42.284Z,4.78
2023-03-31T11:13:21.506Z,3.73
2023-03-31T11:16:18.839Z,7.67
2023-03-31T11:19:12.238Z,3.83
2023-03-31T11:21:57.656Z,2.50
2023-03-31T11:24:49.372Z,5.47
2023-03-31T11:27:41.376Z,4.93
2023-03-31T11:30:28.837Z,2.80
2023-03-31T11:33:18.728Z,7.70
2023-03-31T11:36:06.655Z,4.90
2023-03-31T11:39:03.867Z,4.07
2023-03-31T11:41:41.777Z,3.80
2023-03-31T11:44:16.769Z,7.13
2023-03-31T11:46:54.444Z,3.97
2023-03-31T11:49:29.283Z,3.60
2023-03-31T11:52:03.928Z,4.50
2023-03-31T11:54:53.602Z,4.97
2023-03-31T11:57:46.670Z,4.70
2023-03-31T12:00:20.861Z,5.57
2023-03-31T12:03:13.185Z,5.20
2023-03-31T12:05:53.276Z,6.03
2023-03-31T12:08:50.609Z,7.20
2023-03-31T12:11:40.142Z,7.47
2023-03-31T12:14:18.587Z,5.43
2023-03-31T12:16:58.003Z,5.97
2023-03-31T12:19:50.589Z,3.40
2023-03-31T12:22:27.576Z,4.80
2023-03-31T12:24:59.375Z,7.13
2023-03-31T12:27:42.098Z,5.23
2023-03-31T12:30:17.270Z,3.00
2023-03-31T12:33:27.074Z,5.40
2023-03-31T12:36:14.855Z,2.77
2023-03-31T12:39:01.441Z,4.60
2023-03-31T12:44:57.513Z,3.73
2023-03-31T12:48:02.701Z,3.70
2023-03-31T12:51:02.527Z,3.27
2023-03-31T12:53:45.063Z,3.00
2023-03-31T12:56:18.072Z,2.97
2023-03-31T12:58:50.459Z,2.87
2023-03-31T13:01:23.618Z,2.23
2023-03-31T13:04:21.408Z,5.47
2023-03-31T13:06:59.446Z,3.73
2023-03-31T13:09:33.578Z,2.40
2023-03-31T13:12:13.260Z,3.07
2023-03-31T13:14:47.858Z,2.20
2023-03-31T13:17:27.333Z,3.07
2023-03-31T13:20:25.827Z,2.47
2023-03-31T13:23:03.307Z,2.97
2023-03-31T13:25:39.648Z,1.83
2023-03-31T13:28:18.412Z,3.73
2023-03-31T13:31:04.994Z,5.03
2023-03-31T13:36:32.114Z,2.50
2023-03-31T13:39:12.642Z,1.97
2023-03-31T13:42:08.168Z,1.97
2023-03-31T13:45:21.129Z,3.43
2023-03-31T13:48:04.021Z,1.30
2023-03-31T13:50:52.104Z,2.30
2023-03-31T13:53:59.058Z,2.40
2023-03-31T13:57:05.652Z,2.05
2023-03-31T14:00:12.439Z,1.92
2023-03-31T14:03:12.039Z,1.58
2023-03-31T14:05:50.768Z,2.67
2023-03-31T14:08:40.384Z,1.87
2023-03-31T14:11:28.732Z,1.10
2023-03-31T14:14:15.520Z,2.93
2023-03-31T14:16:59.434Z,1.10
2023-03-31T14:19:49.860Z,1.93
2023-03-31T14:22:46.736Z,2.00
2023-03-31T14:25:50.982Z,1.15
2023-03-31T14:29:02.896Z,1.57
2023-03-31T14:31:56.280Z,1.00
2023-03-31T14:35:06.404Z,1.80
2023-03-31T14:37:37.813Z,3.33
2023-03-31T14:40:15.923Z,1.73
2023-03-31T14:42:50.218Z,3.73
2023-03-31T14:45:26.492Z,2.37
2023-03-31T14:48:02.671Z,3.57
2023-03-31T14:50:36.112Z,1.43
2023-03-31T14:53:14.257Z,0.97
2023-03-31T14:55:58.030Z,2.07
2023-03-31T14:58:35.028Z,2.60
2023-03-31T15:01:09.934Z,2.50
2023-03-31T15:03:43.171Z,1.10
2023-03-31T15:06:15.918Z,2.07
2023-03-31T15:08:47.502Z,3.40
2023-03-31T15:11:21.720Z,1.47
2023-03-31T15:14:04.429Z,2.10
2023-03-31T15:16:44.625Z,1.00
2023-03-31T15:19:21.450Z,3.10
2023-03-31T15:22:01.904Z,2.20
2023-03-31T15:24:33.416Z,3.03
2023-03-31T15:27:23.471Z,3.30
2023-03-31T15:30:05.842Z,1.27
2023-03-31T15:32:39.665Z,2.38
2023-03-31T15:35:25.718Z,2.47
2023-03-31T15:37:59.684Z,2.58
2023-03-31T15:40:41.534Z,1.97
2023-03-31T15:43:25.414Z,4.33
2023-03-31T15:45:59.617Z,6.73
2023-03-31T15:48:36.841Z,2.70
2023-03-31T15:51:14.404Z,2.30
2023-03-31T15:53:48.612Z,3.17
2023-03-31T15:56:38.489Z,2.53
2023-03-31T16:02:26.384Z,1.70
2023-03-31T16:04:59.797Z,2.23
2023-03-31T16:07:34.686Z,1.77
2023-03-31T16:10:19.986Z,1.87
2023-03-31T16:12:56.926Z,2.43
2023-03-31T16:15:48.168Z,1.90
2023-03-31T16:18:39.882Z,3.57
2023-03-31T16:21:13.720Z,1.50
2023-03-31T16:23:52.451Z,2.47
2023-03-31T16:26:25.804Z,1.67
2023-03-31T16:28:57.851Z,1.80
2023-03-31T16:31:35.209Z,3.83
2023-03-31T16:34:09.302Z,1.67
2023-03-31T16:36:40.809Z,2.73
2023-03-31T16:39:12.383Z,0.63
2023-03-31T16:41:43.771Z,1.70
2023-03-31T16:44:15.161Z,3.20
2023-03-31T16:46:47.033Z,2.13
2023-03-31T16:49:18.567Z,4.40
2023-03-31T16:51:50.359Z,3.30
2023-03-31T16:54:21.863Z,2.70
2023-03-31T16:56:53.297Z,1.87
2023-03-31T16:59:24.932Z,6.50
2023-03-31T17:01:56.258Z,2.27
2023-03-31T17:04:28.161Z,2.90
2023-03-31T17:06:59.760Z,1.57
2023-03-31T17:09:31.360Z,2.57
2023-03-31T17:12:03.340Z,2.13
2023-03-31T17:14:34.663Z,4.63
2023-03-31T17:17:06.079Z,9.57
2023-03-31T17:19:37.418Z,3.90
2023-03-31T17:22:08.966Z,3.93
2023-03-31T17:24:40.716Z,4.67
2023-03-31T17:27:13.468Z,3.80
2023-03-31T17:29:44.992Z,2.40
2023-03-31T17:32:17.818Z,5.03
2023-03-31T17:34:49.846Z,4.10
2023-03-31T17:37:21.533Z,1.30
2023-03-31T17:39:53.240Z,4.23
2023-03-31T17:42:24.839Z,2.53
2023-03-31T17:44:56.241Z,3.47
2023-03-31T17:47:27.889Z,2.77
2023-03-31T17:49:59.896Z,2.30
2023-03-31T17:52:31.310Z,2.70
2023-03-31T17:55:04.219Z,3.87
2023-03-31T17:57:37.156Z,2.20
2023-03-31T18:00:09.894Z,1.80
2023-03-31T18:02:42.243Z,4.47
2023-03-31T18:05:16.376Z,3.53
2023-03-31T18:07:49.523Z,4.47
2023-03-31T18:10:22.566Z,5.77
2023-03-31T18:12:55.001Z,2.20
2023-03-31T18:15:26.369Z,3.40
2023-03-31T18:17:57.797Z,4.77
2023-03-31T18:20:29.264Z,3.03
2023-03-31T18:23:00.926Z,2.17
2023-03-31T18:25:32.495Z,3.67
2023-03-31T18:28:04.930Z,2.23
2023-03-31T18:30:37.955Z,4.10
2023-03-31T18:33:11.069Z,6.20
2023-03-31T18:35:42.776Z,5.10
2023-03-31T18:38:14.412Z,3.50
2023-03-31T18:40:50.637Z,4.60
2023-03-31T18:45:58.453Z,2.67
2023-03-31T18:48:30.077Z,3.77
2023-03-31T18:51:01.925Z,3.53
2023-03-31T18:53:33.534Z,3.17
2023-03-31T18:56:05.515Z,3.37
2023-03-31T18:58:37.757Z,3.70
2023-03-31T19:01:09.501Z,4.13
2023-03-31T19:03:42.375Z,4.17
2023-03-31T19:06:13.848Z,5.33
2023-03-31T19:08:45.263Z,4.77
2023-03-31T19:11:17.140Z,4.70
2023-03-31T19:13:49.525Z,5.13
2023-03-31T19:16:21.601Z,6.20
2023-03-31T19:18:53.968Z,5.37
2023-03-31T19:21:25.641Z,4.30
2023-03-31T19:23:57.012Z,5.87
2023-03-31T19:26:29.766Z,5.97
2023-03-31T19:29:02.975Z,9.80
2023-03-31T19:31:38.227Z,7.63
2023-03-31T19:34:11.683Z,6.82
2023-03-31T19:36:43.510Z,5.77
2023-03-31T19:39:15.350Z,5.70
2023-03-31T19:41:46.783Z,6.20
2023-03-31T19:44:18.429Z,6.03
2023-03-31T19:46:49.967Z,8.03
2023-03-31T19:49:22.874Z,5.60
2023-03-31T19:51:55.853Z,5.50
2023-03-31T19:54:27.424Z,6.17
2023-03-31T19:56:58.859Z,5.40
2023-03-31T19:59:30.524Z,4.70
2023-03-31T20:02:05.142Z,6.80
2023-03-31T20:04:36.895Z,4.70
2023-03-31T20:07:08.991Z,6.70
2023-03-31T20:09:40.777Z,4.33
2023-03-31T20:12:12.315Z,3.73
2023-03-31T20:14:44.199Z,2.70
2023-03-31T20:17:16.864Z,5.13
2023-03-31T20:19:48.304Z,2.90
2023-03-31T20:22:20.020Z,5.50
2023-03-31T20:24:51.836Z,6.33
2023-03-31T20:27:26.383Z,4.63
2023-03-31T20:29:57.796Z,4.87
2023-03-31T20:32:29.721Z,2.90
2023-03-31T20:35:01.096Z,3.17
2023-03-31T20:37:33.933Z,6.20
2023-03-31T20:40:06.099Z,4.90
2023-03-31T20:42:37.774Z,5.53
2023-03-31T20:45:09.522Z,6.43
2023-03-31T20:47:40.953Z,6.77
2023-03-31T20:50:12.767Z,7.77
2023-03-31T20:52:47.485Z,7.23
2023-03-31T20:55:19.123Z,8.23
2023-03-31T20:57:50.486Z,7.13
2023-03-31T21:00:22.248Z,5.93
2023-03-31T21:02:53.673Z,6.90
2023-03-31T21:05:25.340Z,10.23
2023-03-31T21:07:56.883Z,7.00
2023-03-31T21:10:28.298Z,4.97
2023-03-31T21:13:12.316Z,9.43
2023-03-31T21:15:48.839Z,9.57
2023-03-31T21:18:25.152Z,7.50
2023-03-31T21:21:06.518Z,3.57
2023-03-31T21:23:38.686Z,4.10
2023-03-31T21:26:13.853Z,4.10
2023-03-31T21:28:46.095Z,4.97
2023-03-31T21:31:18.843Z,4.03
2023-03-31T21:33:52.229Z,3.17
2023-03-31T21:36:25.421Z,4.70
2023-03-31T21:38:57.856Z,6.10
2023-03-31T21:41:31.292Z,4.77
2023-03-31T21:44:03.552Z,3.70
2023-03-31T21:46:34.962Z,5.00
2023-03-31T21:49:06.450Z,8.43
2023-03-31T21:51:38.432Z,6.63
2023-03-31T21:54:09.983Z,4.00
2023-03-31T21:56:41.317Z,7.43
2023-03-31T21:59:12.659Z,4.50
2023-03-31T22:01:44.212Z,3.93
2023-03-31T22:04:16.214Z,4.70
2023-03-31T22:06:47.572Z,7.23
2023-03-31T22:09:19.115Z,3.40
2023-03-31T22:11:50.666Z,6.30
2023-03-31T22:14:22.069Z,5.00
2023-03-31T22:16:53.441Z,4.47
2023-03-31T22:19:24.949Z,5.40
2023-03-31T22:21:56.770Z,4.87
2023-03-31T22:24:28.076Z,6.00
2023-03-31T22:26:59.424Z,5.77
2023-03-31T22:29:31.964Z,5.10
2023-03-31T22:32:05.395Z,5.93
2023-03-31T22:34:36.775Z,4.57
2023-03-31T22:37:08.202Z,5.87
2023-03-31T22:39:39.880Z,7.63
2023-03-31T22:42:11.206Z,5.60
2023-03-31T22:44:42.549Z,4.23
2023-03-31T22:47:13.944Z,6.80
2023-03-31T22:49:45.766Z,5.83
2023-03-31T22:52:17.245Z,6.53
2023-03-31T22:54:48.603Z,4.47
2023-03-31T22:57:20.232Z,4.03
2023-03-31T22:59:51.634Z,5.57
2023-03-31T23:02:23.060Z,4.33
2023-03-31T23:04:54.386Z,6.07
2023-03-31T23:07:25.944Z,6.30
2023-03-31T23:09:57.336Z,5.77
2023-03-31T23:12:29.085Z,6.33
2023-03-31T23:15:00.544Z,4.90
2023-03-31T23:17:32.051Z,5.60
2023-03-31T23:20:04.009Z,7.10
2023-03-31T23:22:35.432Z,5.40
2023-03-31T23:25:07.267Z,7.87
2023-03-31T23:27:38.610Z,4.00
2023-03-31T23:30:10.560Z,6.60
2023-03-31T23:32:42.034Z,6.70
2023-03-31T23:35:13.419Z,7.10
2023-03-31T23:37:45.603Z,8.03
2023-03-31T23:40:17.148Z,5.87
2023-03-31T23:42:48.543Z,9.80
2023-03-31T23:45:19.975Z,2.77
2023-03-31T23:47:51.822Z,4.97
2023-03-31T23:50:23.496Z,5.47
2023-03-31T23:52:55.551Z,6.17
2023-03-31T23:55:28.381Z,4.60
2023-03-31T23:57:59.988Z,6.10
